Carlsbad, California
Current Conditions -  °F | °C
As of 12:24 AM on Sunday 23 Nov 2014 (Local Time) from KOKB Reporting Station
Broken Clouds Broken Clouds  
Wind Chill: 52°   Ceiling: 1600
Heat Index: 52°   Visibility: 8mi
Dew Point: 50°   Wind: 5mph
Humidity: 93%   Direction: 30°NNE
Pressure: 30.04"   Gusts: NA
Location:  33.17°N, 117.33°W
Report Text: KOKB 230824Z AUTO 03004KT 8SM BKN016 11/10 A3004 RMK AO2 T01110100
Loading
Personal Weather Stations






























Interactive Weather Map New forecast layout! Learn more

10-Day Weather Forecast

Advertisements
Track Severe Weather on mobile